Kaministiqua — CFN4612 — position and weather

sailwx.info

Track history (hours):
 
Tides and Currents Weather Stations Pressure Air Temp Water Temp Dewpoint Dewpoint Depression Visibility Wind Speed Wind Dir Waves Ship Positions

Kaministiqua

Last reported at 2017-Nov-18 06:19 UTC. Time now 2017-Nov-18 21:44 UTC.
Position N 45°13' W 074°18'.

Length 223 m; draft 8.1 m.

Type: Cargo ship. MMSI: 316009457.

Date/timePositionNaut miles runAvg speedWind from/ knotsBaromVisibWave heightAir tempDewpointWater temp
2017-Nov-18 06:19N 45°13' W 074°18'310.6
2017-Nov-18 06:00N 45°14' W 074°13'8 8.7
2017-Nov-18 05:07N 45°13' W 074°02'1 8.5
2017-Nov-18 05:00N 45°14' W 074°01'4 8.5
2017-Nov-18 04:30N 45°17' W 073°57'2 3.5
2017-Nov-18 04:01N 45°18' W 073°56'1 1.4
2017-Nov-18 03:31N 45°19' W 073°55'0 0.7
2017-Nov-18 03:01N 45°19' W 073°55'2 4.1
2017-Nov-18 02:30N 45°21' W 073°53'510.1
2017-Nov-18 02:00N 45°24' W 073°47'4 7.9
2017-Nov-18 01:30N 45°25' W 073°42'3 5.2
2017-Nov-18 01:00N 45°24' W 073°38'3 5.5
2017-Nov-18 00:31N 45°24' W 073°34'0 0.9
2017-Nov-18 00:01N 45°24' W 073°34'1 2.0
2017-Nov-17 23:30N 45°24' W 073°32'3 5.3
2017-Nov-17 22:54N 45°27' W 073°30'2 5.2
2017-Nov-17 22:27N 45°30' W 073°31'  
2017-Nov-09 23:02N 45°26' W 083°22'111.7
2017-Nov-09 22:58N 45°27' W 083°23'611.9
2017-Nov-09 22:29N 45°32' W 083°27'611.9
2017-Nov-09 21:59N 45°37' W 083°32'  
Track history (hours):
 
Tides and Currents Weather Stations Pressure Air Temp Water Temp Dewpoint Dewpoint Depression Visibility Wind Speed Wind Dir Waves Ship Positions

Kaministiqua

Last reported at 2017-Nov-18 06:19 UTC. Time now 2017-Nov-18 21:44 UTC.
Position N 45°13' W 074°18'.

Length 223 m; draft 8.1 m.

Type: Cargo ship. MMSI: 316009457.

Date/timePositionNaut miles runAvg speedWind from/ knotsBaromVisibWave heightAir tempDewpointWater temp
2017-Nov-18 06:19N 45°13' W 074°18'310.6
2017-Nov-18 06:00N 45°14' W 074°13'8 8.7
2017-Nov-18 05:07N 45°13' W 074°02'1 8.5
2017-Nov-18 05:00N 45°14' W 074°01'4 8.5
2017-Nov-18 04:30N 45°17' W 073°57'2 3.5
2017-Nov-18 04:01N 45°18' W 073°56'1 1.4
2017-Nov-18 03:31N 45°19' W 073°55'0 0.7
2017-Nov-18 03:01N 45°19' W 073°55'2 4.1
2017-Nov-18 02:30N 45°21' W 073°53'510.1
2017-Nov-18 02:00N 45°24' W 073°47'4 7.9
2017-Nov-18 01:30N 45°25' W 073°42'3 5.2
2017-Nov-18 01:00N 45°24' W 073°38'3 5.5
2017-Nov-18 00:31N 45°24' W 073°34'0 0.9
2017-Nov-18 00:01N 45°24' W 073°34'1 2.0
2017-Nov-17 23:30N 45°24' W 073°32'3 5.3
2017-Nov-17 22:54N 45°27' W 073°30'2 5.2
2017-Nov-17 22:27N 45°30' W 073°31'  
2017-Nov-09 23:02N 45°26' W 083°22'111.7
2017-Nov-09 22:58N 45°27' W 083°23'611.9
2017-Nov-09 22:29N 45°32' W 083°27'611.9
2017-Nov-09 21:59N 45°37' W 083°32'  

Dump ship's entire track history